sensor_id;sensor_type;location;lat;lon;timestamp;pressure;altitude;pressure_sealevel;temperature;humidity
51287;BME280;37364;46.974;18.916;2022-12-20T00:02:15;149493.81;;;-3.44;100.00
51287;BME280;37364;46.974;18.916;2022-12-20T00:04:45;149491.25;;;-3.45;100.00
51287;BME280;37364;46.974;18.916;2022-12-20T00:07:16;149482.31;;;-3.49;100.00
51287;BME280;37364;46.974;18.916;2022-12-20T00:09:48;149479.72;;;-3.50;100.00
51287;BME280;37364;46.974;18.916;2022-12-20T00:12:18;149483.59;;;-3.48;100.00
51287;BME280;37364;46.974;18.916;2022-12-20T00:14:49;149472.03;;;-3.53;100.00
51287;BME280;37364;46.974;18.916;2022-12-20T00:17:20;149470.75;;;-3.53;100.00
51287;BME280;37364;46.974;18.916;2022-12-20T00:19:50;149472.03;;;-3.53;100.00
51287;BME280;37364;46.974;18.916;2022-12-20T00:22:20;149472.03;;;-3.53;100.00
51287;BME280;37364;46.974;18.916;2022-12-20T00:24:53;149489.97;;;-3.46;100.00
51287;BME280;37364;46.974;18.916;2022-12-20T00:27:23;149481.00;;;-3.49;100.00
51287;BME280;37364;46.974;18.916;2022-12-20T00:29:53;149486.13;;;-3.47;100.00
51287;BME280;37364;46.974;18.916;2022-12-20T00:32:23;149479.72;;;-3.50;100.00
51287;BME280;37364;46.974;18.916;2022-12-20T00:34:53;149475.88;;;-3.51;100.00
51287;BME280;37364;46.974;18.916;2022-12-20T00:37:23;149483.59;;;-3.48;100.00
51287;BME280;37364;46.974;18.916;2022-12-20T00:39:56;149489.97;;;-3.46;100.00
51287;BME280;37364;46.974;18.916;2022-12-20T00:42:26;149492.56;;;-3.45;100.00
51287;BME280;37364;46.974;18.916;2022-12-20T00:44:57;149510.44;;;-3.38;100.00
51287;BME280;37364;46.974;18.916;2022-12-20T00:47:27;149505.34;;;-3.40;100.00
51287;BME280;37364;46.974;18.916;2022-12-20T00:49:57;149498.94;;;-3.42;100.00
51287;BME280;37364;46.974;18.916;2022-12-20T00:52:27;149501.47;;;-3.41;100.00
51287;BME280;37364;46.974;18.916;2022-12-20T00:55:00;149488.69;;;-3.46;100.00
51287;BME280;37364;46.974;18.916;2022-12-20T00:57:31;149488.69;;;-3.46;100.00
51287;BME280;37364;46.974;18.916;2022-12-20T01:00:01;149493.81;;;-3.44;100.00
51287;BME280;37364;46.974;18.916;2022-12-20T01:02:31;149498.94;;;-3.42;100.00
51287;BME280;37364;46.974;18.916;2022-12-20T01:05:02;149493.81;;;-3.44;100.00
51287;BME280;37364;46.974;18.916;2022-12-20T01:07:32;149483.59;;;-3.48;100.00
51287;BME280;37364;46.974;18.916;2022-12-20T01:10:06;149487.44;;;-3.47;100.00
51287;BME280;37364;46.974;18.916;2022-12-20T01:12:36;149486.13;;;-3.47;100.00
51287;BME280;37364;46.974;18.916;2022-12-20T01:15:07;149493.81;;;-3.44;100.00
51287;BME280;37364;46.974;18.916;2022-12-20T01:17:38;149504.06;;;-3.40;100.00
51287;BME280;37364;46.974;18.916;2022-12-20T01:20:08;149507.91;;;-3.39;100.00
51287;BME280;37364;46.974;18.916;2022-12-20T01:22:39;149506.66;;;-3.39;100.00
51287;BME280;37364;46.974;18.916;2022-12-20T01:25:16;149504.06;;;-3.40;100.00
51287;BME280;37364;46.974;18.916;2022-12-20T01:27:46;149520.69;;;-3.33;100.00
51287;BME280;37364;46.974;18.916;2022-12-20T01:30:16;149525.81;;;-3.31;100.00
51287;BME280;37364;46.974;18.916;2022-12-20T01:32:47;149525.81;;;-3.31;100.00
51287;BME280;37364;46.974;18.916;2022-12-20T01:35:17;149529.66;;;-3.30;100.00
51287;BME280;37364;46.974;18.916;2022-12-20T01:37:47;149538.66;;;-3.26;100.00
51287;BME280;37364;46.974;18.916;2022-12-20T01:40:20;149546.34;;;-3.23;100.00
51287;BME280;37364;46.974;18.916;2022-12-20T01:42:50;149550.16;;;-3.22;100.00
51287;BME280;37364;46.974;18.916;2022-12-20T01:45:26;149552.75;;;-3.21;100.00
51287;BME280;37364;46.974;18.916;2022-12-20T01:47:57;149552.75;;;-3.21;100.00
51287;BME280;37364;46.974;18.916;2022-12-20T01:50:29;149555.28;;;-3.20;100.00
51287;BME280;37364;46.974;18.916;2022-12-20T01:52:59;149561.72;;;-3.17;100.00
51287;BME280;37364;46.974;18.916;2022-12-20T01:55:34;149564.25;;;-3.16;100.00
51287;BME280;37364;46.974;18.916;2022-12-20T01:58:06;149557.88;;;-3.19;100.00
51287;BME280;37364;46.974;18.916;2022-12-20T02:00:38;149569.38;;;-3.14;100.00
51287;BME280;37364;46.974;18.916;2022-12-20T02:03:11;149566.84;;;-3.15;100.00
51287;BME280;37364;46.974;18.916;2022-12-20T02:05:44;149565.56;;;-3.15;100.00
51287;BME280;37364;46.974;18.916;2022-12-20T02:08:17;149564.25;;;-3.16;100.00
51287;BME280;37364;46.974;18.916;2022-12-20T02:10:59;149560.41;;;-3.18;100.00
51287;BME280;37364;46.974;18.916;2022-12-20T02:13:39;149559.13;;;-3.18;100.00
51287;BME280;37364;46.974;18.916;2022-12-20T02:16:18;149562.97;;;-3.16;100.00
51287;BME280;37364;46.974;18.916;2022-12-20T02:18:56;149565.56;;;-3.15;100.00
51287;BME280;37364;46.974;18.916;2022-12-20T02:21:33;149580.94;;;-3.09;100.00
51287;BME280;37364;46.974;18.916;2022-12-20T02:27:30;149588.59;;;-3.06;100.00
51287;BME280;37364;46.974;18.916;2022-12-20T02:30:08;149583.47;;;-3.08;100.00
51287;BME280;37364;46.974;18.916;2022-12-20T02:32:43;149587.31;;;-3.07;100.00
51287;BME280;37364;46.974;18.916;2022-12-20T02:35:20;149580.94;;;-3.09;100.00
51287;BME280;37364;46.974;18.916;2022-12-20T02:37:52;149587.31;;;-3.07;100.00
51287;BME280;37364;46.974;18.916;2022-12-20T02:40:25;149591.19;;;-3.05;100.00
51287;BME280;37364;46.974;18.916;2022-12-20T02:42:59;149574.50;;;-3.12;100.00
51287;BME280;37364;46.974;18.916;2022-12-20T02:45:55;149570.69;;;-3.13;100.00
51287;BME280;37364;46.974;18.916;2022-12-20T02:48:24;149566.84;;;-3.15;100.00
51287;BME280;37364;46.974;18.916;2022-12-20T02:50:58;149570.69;;;-3.13;100.00
51287;BME280;37364;46.974;18.916;2022-12-20T02:53:29;149565.56;;;-3.15;100.00
51287;BME280;37364;46.974;18.916;2022-12-20T02:56:03;149560.41;;;-3.18;100.00
51287;BME280;37364;46.974;18.916;2022-12-20T02:58:40;149557.88;;;-3.19;100.00
51287;BME280;37364;46.974;18.916;2022-12-20T03:01:19;149560.41;;;-3.18;100.00
51287;BME280;37364;46.974;18.916;2022-12-20T03:03:53;149546.34;;;-3.23;100.00
51287;BME280;37364;46.974;18.916;2022-12-20T03:06:24;149545.03;;;-3.24;100.00
51287;BME280;37364;46.974;18.916;2022-12-20T03:08:54;149545.03;;;-3.24;100.00
51287;BME280;37364;46.974;18.916;2022-12-20T03:11:27;149537.38;;;-3.27;100.00
51287;BME280;37364;46.974;18.916;2022-12-20T03:13:57;149532.25;;;-3.29;100.00
51287;BME280;37364;46.974;18.916;2022-12-20T03:16:30;149522.00;;;-3.33;100.00
51287;BME280;37364;46.974;18.916;2022-12-20T03:19:00;149511.78;;;-3.37;100.00
51287;BME280;37364;46.974;18.916;2022-12-20T03:21:30;149498.94;;;-3.42;100.00
51287;BME280;37364;46.974;18.916;2022-12-20T03:24:00;149495.09;;;-3.44;100.00
51287;BME280;37364;46.974;18.916;2022-12-20T03:26:31;149497.69;;;-3.43;100.00
51287;BME280;37364;46.974;18.916;2022-12-20T03:29:01;149491.25;;;-3.45;100.00
51287;BME280;37364;46.974;18.916;2022-12-20T03:31:35;149486.13;;;-3.47;100.00
51287;BME280;37364;46.974;18.916;2022-12-20T03:34:05;149478.47;;;-3.50;100.00
51287;BME280;37364;46.974;18.916;2022-12-20T03:36:35;149488.69;;;-3.46;100.00
51287;BME280;37364;46.974;18.916;2022-12-20T03:39:06;149482.31;;;-3.49;100.00
51287;BME280;37364;46.974;18.916;2022-12-20T03:41:38;149482.31;;;-3.49;100.00
51287;BME280;37364;46.974;18.916;2022-12-20T03:44:11;149478.47;;;-3.50;100.00
51287;BME280;37364;46.974;18.916;2022-12-20T03:46:44;149479.72;;;-3.50;100.00
51287;BME280;37364;46.974;18.916;2022-12-20T03:49:15;149477.16;;;-3.51;100.00
51287;BME280;37364;46.974;18.916;2022-12-20T03:51:50;149477.16;;;-3.51;100.00
51287;BME280;37364;46.974;18.916;2022-12-20T03:54:21;149478.47;;;-3.50;100.00
51287;BME280;37364;46.974;18.916;2022-12-20T03:57:04;149477.16;;;-3.51;100.00
51287;BME280;37364;46.974;18.916;2022-12-20T03:59:35;149481.00;;;-3.49;100.00
51287;BME280;37364;46.974;18.916;2022-12-20T04:02:10;149482.31;;;-3.49;100.00
51287;BME280;37364;46.974;18.916;2022-12-20T04:04:41;149483.59;;;-3.48;100.00
51287;BME280;37364;46.974;18.916;2022-12-20T04:07:13;149481.00;;;-3.49;100.00
51287;BME280;37364;46.974;18.916;2022-12-20T04:09:45;149478.47;;;-3.50;100.00
51287;BME280;37364;46.974;18.916;2022-12-20T04:12:16;149466.91;;;-3.55;100.00
51287;BME280;37364;46.974;18.916;2022-12-20T04:14:46;149466.91;;;-3.55;100.00
51287;BME280;37364;46.974;18.916;2022-12-20T04:17:19;149468.22;;;-3.54;100.00
51287;BME280;37364;46.974;18.916;2022-12-20T04:19:49;149464.38;;;-3.56;100.00
51287;BME280;37364;46.974;18.916;2022-12-20T04:22:19;149460.53;;;-3.58;100.00
51287;BME280;37364;46.974;18.916;2022-12-20T04:24:56;149460.53;;;-3.58;100.00
51287;BME280;37364;46.974;18.916;2022-12-20T04:27:33;149457.97;;;-3.59;100.00
51287;BME280;37364;46.974;18.916;2022-12-20T04:30:07;149447.69;;;-3.63;100.00
51287;BME280;37364;46.974;18.916;2022-12-20T04:32:40;149457.97;;;-3.59;100.00
51287;BME280;37364;46.974;18.916;2022-12-20T04:35:12;149451.53;;;-3.61;100.00
51287;BME280;37364;46.974;18.916;2022-12-20T04:37:42;149447.69;;;-3.63;100.00
51287;BME280;37364;46.974;18.916;2022-12-20T04:40:13;149452.88;;;-3.61;100.00
51287;BME280;37364;46.974;18.916;2022-12-20T04:42:47;149454.13;;;-3.60;100.00
51287;BME280;37364;46.974;18.916;2022-12-20T04:45:18;149449.00;;;-3.62;100.00
51287;BME280;37364;46.974;18.916;2022-12-20T04:47:54;149445.16;;;-3.64;100.00
51287;BME280;37364;46.974;18.916;2022-12-20T04:50:47;149445.16;;;-3.64;100.00
51287;BME280;37364;46.974;18.916;2022-12-20T04:53:17;149438.78;;;-3.66;100.00
51287;BME280;37364;46.974;18.916;2022-12-20T04:56:00;149446.44;;;-3.63;100.00
51287;BME280;37364;46.974;18.916;2022-12-20T04:58:30;149441.31;;;-3.65;100.00
51287;BME280;37364;46.974;18.916;2022-12-20T05:01:03;149433.66;;;-3.68;100.00
51287;BME280;37364;46.974;18.916;2022-12-20T05:03:46;149431.06;;;-3.69;100.00
51287;BME280;37364;46.974;18.916;2022-12-20T05:06:16;149427.22;;;-3.71;100.00
51287;BME280;37364;46.974;18.916;2022-12-20T05:08:46;149420.84;;;-3.73;100.00
51287;BME280;37364;46.974;18.916;2022-12-20T05:11:16;149418.25;;;-3.74;100.00
51287;BME280;37364;46.974;18.916;2022-12-20T05:13:47;149406.75;;;-3.79;100.00
51287;BME280;37364;46.974;18.916;2022-12-20T05:16:19;149406.75;;;-3.79;100.00
51287;BME280;37364;46.974;18.916;2022-12-20T05:18:54;149411.88;;;-3.77;100.00
51287;BME280;37364;46.974;18.916;2022-12-20T05:21:24;149406.75;;;-3.79;100.00
51287;BME280;37364;46.974;18.916;2022-12-20T05:24:08;149395.22;;;-3.84;100.00
51287;BME280;37364;46.974;18.916;2022-12-20T05:27:04;149400.34;;;-3.82;100.00
51287;BME280;37364;46.974;18.916;2022-12-20T05:29:34;149406.75;;;-3.79;100.00
51287;BME280;37364;46.974;18.916;2022-12-20T05:32:04;149406.75;;;-3.79;100.00
51287;BME280;37364;46.974;18.916;2022-12-20T05:34:41;149405.47;;;-3.80;100.00
51287;BME280;37364;46.974;18.916;2022-12-20T05:37:11;149406.75;;;-3.79;100.00
51287;BME280;37364;46.974;18.916;2022-12-20T05:39:42;149409.31;;;-3.78;100.00
51287;BME280;37364;46.974;18.916;2022-12-20T05:42:18;149405.47;;;-3.80;100.00
51287;BME280;37364;46.974;18.916;2022-12-20T05:44:50;149404.22;;;-3.80;100.00
51287;BME280;37364;46.974;18.916;2022-12-20T05:47:21;149410.59;;;-3.78;100.00
51287;BME280;37364;46.974;18.916;2022-12-20T05:50:03;149410.59;;;-3.78;100.00
51287;BME280;37364;46.974;18.916;2022-12-20T05:53:02;149400.34;;;-3.82;100.00
51287;BME280;37364;46.974;18.916;2022-12-20T05:55:44;149399.09;;;-3.82;100.00
51287;BME280;37364;46.974;18.916;2022-12-20T05:58:15;149402.91;;;-3.81;100.00
51287;BME280;37364;46.974;18.916;2022-12-20T06:00:53;149411.88;;;-3.77;100.00
51287;BME280;37364;46.974;18.916;2022-12-20T06:03:25;149411.88;;;-3.77;100.00
51287;BME280;37364;46.974;18.916;2022-12-20T06:05:58;149411.88;;;-3.77;100.00
51287;BME280;37364;46.974;18.916;2022-12-20T06:08:30;149427.22;;;-3.71;100.00
51287;BME280;37364;46.974;18.916;2022-12-20T06:11:05;149449.00;;;-3.62;100.00
51287;BME280;37364;46.974;18.916;2022-12-20T06:13:45;149443.91;;;-3.64;100.00
51287;BME280;37364;46.974;18.916;2022-12-20T06:16:15;149442.56;;;-3.65;100.00
51287;BME280;37364;46.974;18.916;2022-12-20T06:18:47;149438.78;;;-3.66;100.00
51287;BME280;37364;46.974;18.916;2022-12-20T06:21:20;149440.03;;;-3.66;100.00
51287;BME280;37364;46.974;18.916;2022-12-20T06:23:52;149447.69;;;-3.63;100.00
51287;BME280;37364;46.974;18.916;2022-12-20T06:26:22;149446.44;;;-3.63;100.00
51287;BME280;37364;46.974;18.916;2022-12-20T06:28:53;149451.53;;;-3.61;100.00
51287;BME280;37364;46.974;18.916;2022-12-20T06:31:36;149450.28;;;-3.62;100.00
51287;BME280;37364;46.974;18.916;2022-12-20T06:34:07;149457.97;;;-3.59;100.00
51287;BME280;37364;46.974;18.916;2022-12-20T06:36:42;149455.41;;;-3.60;100.00
51287;BME280;37364;46.974;18.916;2022-12-20T06:39:18;149475.88;;;-3.51;100.00
51287;BME280;37364;46.974;18.916;2022-12-20T06:41:58;149473.34;;;-3.52;100.00
51287;BME280;37364;46.974;18.916;2022-12-20T06:44:28;149483.59;;;-3.48;100.00
51287;BME280;37364;46.974;18.916;2022-12-20T06:46:59;149470.75;;;-3.53;100.00
51287;BME280;37364;46.974;18.916;2022-12-20T06:49:29;149472.03;;;-3.53;100.00
51287;BME280;37364;46.974;18.916;2022-12-20T06:52:06;149475.88;;;-3.51;100.00
51287;BME280;37364;46.974;18.916;2022-12-20T06:54:48;149477.16;;;-3.51;100.00
51287;BME280;37364;46.974;18.916;2022-12-20T06:57:20;149473.34;;;-3.52;100.00
51287;BME280;37364;46.974;18.916;2022-12-20T06:59:51;149477.16;;;-3.51;100.00
51287;BME280;37364;46.974;18.916;2022-12-20T07:02:22;149482.31;;;-3.49;100.00
51287;BME280;37364;46.974;18.916;2022-12-20T07:04:54;149483.59;;;-3.48;100.00
51287;BME280;37364;46.974;18.916;2022-12-20T07:07:27;149487.44;;;-3.47;100.00
51287;BME280;37364;46.974;18.916;2022-12-20T07:09:57;149492.56;;;-3.45;100.00
51287;BME280;37364;46.974;18.916;2022-12-20T07:12:28;149505.34;;;-3.40;100.00
51287;BME280;37364;46.974;18.916;2022-12-20T07:14:59;149520.69;;;-3.33;100.00
51287;BME280;37364;46.974;18.916;2022-12-20T07:17:29;149522.00;;;-3.33;100.00
51287;BME280;37364;46.974;18.916;2022-12-20T07:19:59;149522.00;;;-3.33;100.00
51287;BME280;37364;46.974;18.916;2022-12-20T07:22:41;149522.00;;;-3.33;100.00
51287;BME280;37364;46.974;18.916;2022-12-20T07:25:13;149536.09;;;-3.27;100.00
51287;BME280;37364;46.974;18.916;2022-12-20T07:27:46;149550.16;;;-3.22;100.00
51287;BME280;37364;46.974;18.916;2022-12-20T07:30:17;149562.97;;;-3.16;100.00
51287;BME280;37364;46.974;18.916;2022-12-20T07:32:48;149571.97;;;-3.13;100.00
51287;BME280;37364;46.974;18.916;2022-12-20T07:35:18;149584.75;;;-3.08;100.00
51287;BME280;37364;46.974;18.916;2022-12-20T07:37:51;149598.84;;;-3.02;100.00
51287;BME280;37364;46.974;18.916;2022-12-20T07:40:21;149596.28;;;-3.03;100.00
51287;BME280;37364;46.974;18.916;2022-12-20T07:42:52;149597.56;;;-3.03;100.00
51287;BME280;37364;46.974;18.916;2022-12-20T07:45:22;149615.53;;;-2.95;100.00
51287;BME280;37364;46.974;18.916;2022-12-20T07:47:52;149615.53;;;-2.95;100.00
51287;BME280;37364;46.974;18.916;2022-12-20T07:50:27;149610.41;;;-2.97;100.00
51287;BME280;37364;46.974;18.916;2022-12-20T07:53:01;149632.16;;;-2.89;100.00
51287;BME280;37364;46.974;18.916;2022-12-20T07:55:35;149639.88;;;-2.86;100.00
51287;BME280;37364;46.974;18.916;2022-12-20T07:58:08;149650.09;;;-2.82;100.00
51287;BME280;37364;46.974;18.916;2022-12-20T08:00:40;149671.88;;;-2.73;100.00
51287;BME280;37364;46.974;18.916;2022-12-20T08:03:12;149670.59;;;-2.73;100.00
51287;BME280;37364;46.974;18.916;2022-12-20T08:05:49;149687.25;;;-2.67;100.00
51287;BME280;37364;46.974;18.916;2022-12-20T08:08:24;149685.97;;;-2.67;100.00
51287;BME280;37364;46.974;18.916;2022-12-20T08:10:54;149680.84;;;-2.69;100.00
51287;BME280;37364;46.974;18.916;2022-12-20T08:13:25;149685.97;;;-2.67;100.00
51287;BME280;37364;46.974;18.916;2022-12-20T08:15:55;149680.84;;;-2.69;100.00
51287;BME280;37364;46.974;18.916;2022-12-20T08:18:26;149670.59;;;-2.73;100.00
51287;BME280;37364;46.974;18.916;2022-12-20T08:20:56;149683.44;;;-2.68;100.00
51287;BME280;37364;46.974;18.916;2022-12-20T08:23:29;149703.94;;;-2.60;100.00
51287;BME280;37364;46.974;18.916;2022-12-20T08:26:00;149715.44;;;-2.55;100.00
51287;BME280;37364;46.974;18.916;2022-12-20T08:28:31;149739.81;;;-2.46;100.00
51287;BME280;37364;46.974;18.916;2022-12-20T08:31:04;149750.06;;;-2.42;100.00
51287;BME280;37364;46.974;18.916;2022-12-20T08:33:36;149780.84;;;-2.29;100.00
51287;BME280;37364;46.974;18.916;2022-12-20T08:36:09;149800.03;;;-2.22;100.00
51287;BME280;37364;46.974;18.916;2022-12-20T08:38:42;149816.72;;;-2.15;100.00
51287;BME280;37364;46.974;18.916;2022-12-20T08:41:14;149830.84;;;-2.09;100.00
51287;BME280;37364;46.974;18.916;2022-12-20T08:43:44;149855.19;;;-2.00;100.00
51287;BME280;37364;46.974;18.916;2022-12-20T08:46:15;149870.59;;;-1.93;100.00
51287;BME280;37364;46.974;18.916;2022-12-20T08:48:45;149910.31;;;-1.77;100.00
51287;BME280;37364;46.974;18.916;2022-12-20T08:51:15;149932.09;;;-1.69;100.00
51287;BME280;37364;46.974;18.916;2022-12-20T08:53:48;149938.56;;;-1.66;100.00
51287;BME280;37364;46.974;18.916;2022-12-20T08:56:19;149946.22;;;-1.63;100.00
51287;BME280;37364;46.974;18.916;2022-12-20T08:58:49;149948.81;;;-1.62;100.00
51287;BME280;37364;46.974;18.916;2022-12-20T09:01:20;149969.31;;;-1.54;100.00
51287;BME280;37364;46.974;18.916;2022-12-20T09:03:53;149979.59;;;-1.50;100.00
51287;BME280;37364;46.974;18.916;2022-12-20T09:06:23;149996.25;;;-1.43;100.00
51287;BME280;37364;46.974;18.916;2022-12-20T09:08:58;150033.47;;;-1.28;100.00
51287;BME280;37364;46.974;18.916;2022-12-20T09:11:28;150045.00;;;-1.24;100.00
51287;BME280;37364;46.974;18.916;2022-12-20T09:13:58;150056.56;;;-1.19;100.00
51287;BME280;37364;46.974;18.916;2022-12-20T09:16:30;150055.31;;;-1.20;100.00
51287;BME280;37364;46.974;18.916;2022-12-20T09:19:02;150064.25;;;-1.16;100.00
51287;BME280;37364;46.974;18.916;2022-12-20T09:21:34;150083.50;;;-1.08;100.00
51287;BME280;37364;46.974;18.916;2022-12-20T09:24:09;150119.47;;;-0.94;100.00
51287;BME280;37364;46.974;18.916;2022-12-20T09:26:39;150127.13;;;-0.91;100.00
51287;BME280;37364;46.974;18.916;2022-12-20T09:29:11;150132.25;;;-0.89;100.00
51287;BME280;37364;46.974;18.916;2022-12-20T09:31:51;150129.72;;;-0.90;100.00
51287;BME280;37364;46.974;18.916;2022-12-20T09:34:22;150159.25;;;-0.78;100.00
51287;BME280;37364;46.974;18.916;2022-12-20T09:36:52;150170.78;;;-0.73;100.00
51287;BME280;37364;46.974;18.916;2022-12-20T09:39:26;150183.63;;;-0.68;100.00
51287;BME280;37364;46.974;18.916;2022-12-20T09:41:57;150201.56;;;-0.61;100.00
51287;BME280;37364;46.974;18.916;2022-12-20T09:44:32;150211.81;;;-0.57;100.00
51287;BME280;37364;46.974;18.916;2022-12-20T09:47:06;150227.28;;;-0.51;100.00
51287;BME280;37364;46.974;18.916;2022-12-20T09:49:42;150251.66;;;-0.41;100.00
51287;BME280;37364;46.974;18.916;2022-12-20T09:52:25;150270.88;;;-0.33;100.00
51287;BME280;37364;46.974;18.916;2022-12-20T09:55:06;150285.00;;;-0.28;100.00
51287;BME280;37364;46.974;18.916;2022-12-20T09:57:50;150295.28;;;-0.24;100.00
51287;BME280;37364;46.974;18.916;2022-12-20T10:00:26;150317.13;;;-0.15;100.00
51287;BME280;37364;46.974;18.916;2022-12-20T10:03:01;150314.56;;;-0.16;100.00
51287;BME280;37364;46.974;18.916;2022-12-20T10:05:43;150335.13;;;-0.08;100.00
51287;BME280;37364;46.974;18.916;2022-12-20T10:08:23;150356.94;;;0.01;100.00
51287;BME280;37364;46.974;18.916;2022-12-20T10:11:06;150368.50;;;0.06;100.00
51287;BME280;37364;46.974;18.916;2022-12-20T10:13:48;150377.47;;;0.09;100.00
51287;BME280;37364;46.974;18.916;2022-12-20T10:16:32;150399.34;;;0.18;100.00
51287;BME280;37364;46.974;18.916;2022-12-20T10:19:27;150392.88;;;0.15;100.00
51287;BME280;37364;46.974;18.916;2022-12-20T10:22:07;150401.91;;;0.19;100.00
51287;BME280;37364;46.974;18.916;2022-12-20T10:24:40;150391.63;;;0.15;100.00
51287;BME280;37364;46.974;18.916;2022-12-20T10:27:18;150432.72;;;0.31;100.00
51287;BME280;37364;46.974;18.916;2022-12-20T10:29:49;150453.31;;;0.39;100.00
51287;BME280;37364;46.974;18.916;2022-12-20T10:32:22;150440.44;;;0.34;100.00
51287;BME280;37364;46.974;18.916;2022-12-20T10:34:56;150457.13;;;0.41;100.00
51287;BME280;37364;46.974;18.916;2022-12-20T10:37:28;150445.56;;;0.36;100.00
51287;BME280;37364;46.974;18.916;2022-12-20T10:39:58;150463.56;;;0.44;100.00
51287;BME280;37364;46.974;18.916;2022-12-20T10:42:39;150500.81;;;0.58;100.00
51287;BME280;37364;46.974;18.916;2022-12-20T10:45:26;150525.22;;;0.68;100.00
51287;BME280;37364;46.974;18.916;2022-12-20T10:48:04;150512.41;;;0.63;100.00
51287;BME280;37364;46.974;18.916;2022-12-20T10:50:35;150517.53;;;0.65;100.00
51287;BME280;37364;46.974;18.916;2022-12-20T10:53:20;150559.91;;;0.82;100.00
51287;BME280;37364;46.974;18.916;2022-12-20T10:55:51;150567.66;;;0.85;100.00
51287;BME280;37364;46.974;18.916;2022-12-20T10:58:33;150592.06;;;0.95;100.00
51287;BME280;37364;46.974;18.916;2022-12-20T11:01:09;150593.34;;;0.95;100.00
51287;BME280;37364;46.974;18.916;2022-12-20T11:03:50;150595.94;;;0.96;100.00
51287;BME280;37364;46.974;18.916;2022-12-20T11:06:22;150597.22;;;0.97;100.00
51287;BME280;37364;46.974;18.916;2022-12-20T11:08:52;150633.19;;;1.11;100.00
51287;BME280;37364;46.974;18.916;2022-12-20T11:11:26;150639.66;;;1.14;100.00
51287;BME280;37364;46.974;18.916;2022-12-20T11:14:12;150615.22;;;1.04;100.00
51287;BME280;37364;46.974;18.916;2022-12-20T11:16:45;150640.94;;;1.14;100.00
51287;BME280;37364;46.974;18.916;2022-12-20T11:19:30;150673.03;;;1.27;100.00
51287;BME280;37364;46.974;18.916;2022-12-20T11:22:15;150678.16;;;1.29;100.00
51287;BME280;37364;46.974;18.916;2022-12-20T11:24:53;150679.50;;;1.30;100.00
51287;BME280;37364;46.974;18.916;2022-12-20T11:27:31;150702.59;;;1.39;100.00
51287;BME280;37364;46.974;18.916;2022-12-20T11:30:11;150702.59;;;1.39;100.00
51287;BME280;37364;46.974;18.916;2022-12-20T11:33:09;150696.19;;;1.36;100.00
51287;BME280;37364;46.974;18.916;2022-12-20T11:35:49;150674.34;;;1.28;100.00
51287;BME280;37364;46.974;18.916;2022-12-20T11:38:30;150669.22;;;1.26;100.00
51287;BME280;37364;46.974;18.916;2022-12-20T11:41:11;150675.63;;;1.28;100.00
51287;BME280;37364;46.974;18.916;2022-12-20T11:43:55;150703.94;;;1.40;100.00
51287;BME280;37364;46.974;18.916;2022-12-20T11:47:02;150737.31;;;1.53;100.00
51287;BME280;37364;46.974;18.916;2022-12-20T11:49:56;150710.34;;;1.42;100.00
51287;BME280;37364;46.974;18.916;2022-12-20T11:52:34;150718.06;;;1.45;100.00
51287;BME280;37364;46.974;18.916;2022-12-20T11:55:15;150697.47;;;1.37;100.00
51287;BME280;37364;46.974;18.916;2022-12-20T11:57:55;150682.03;;;1.31;100.00
51287;BME280;37364;46.974;18.916;2022-12-20T12:00:53;150642.19;;;1.15;100.00
51287;BME280;37364;46.974;18.916;2022-12-20T12:03:32;150617.78;;;1.05;100.00
51287;BME280;37364;46.974;18.916;2022-12-20T12:06:06;150590.81;;;0.94;100.00
51287;BME280;37364;46.974;18.916;2022-12-20T12:08:43;150589.47;;;0.94;100.00
51287;BME280;37364;46.974;18.916;2022-12-20T12:11:19;150576.66;;;0.89;100.00
51287;BME280;37364;46.974;18.916;2022-12-20T12:14:17;150594.63;;;0.96;100.00
51287;BME280;37364;46.974;18.916;2022-12-20T12:16:53;150634.50;;;1.12;100.00
51287;BME280;37364;46.974;18.916;2022-12-20T12:19:32;150646.06;;;1.16;100.00
51287;BME280;37364;46.974;18.916;2022-12-20T12:22:08;150653.75;;;1.19;100.00
51287;BME280;37364;46.974;18.916;2022-12-20T12:24:46;150653.75;;;1.19;100.00
51287;BME280;37364;46.974;18.916;2022-12-20T12:27:21;150674.34;;;1.28;100.00
51287;BME280;37364;46.974;18.916;2022-12-20T12:29:52;150710.34;;;1.42;100.00
51287;BME280;37364;46.974;18.916;2022-12-20T12:32:28;150710.34;;;1.42;100.00
51287;BME280;37364;46.974;18.916;2022-12-20T12:38:03;150734.78;;;1.52;100.00
51287;BME280;37364;46.974;18.916;2022-12-20T12:43:43;150760.47;;;1.62;100.00
51287;BME280;37364;46.974;18.916;2022-12-20T12:46:17;150784.91;;;1.72;100.00
51287;BME280;37364;46.974;18.916;2022-12-20T12:48:53;150801.66;;;1.78;100.00
51287;BME280;37364;46.974;18.916;2022-12-20T12:51:31;150814.50;;;1.84;100.00
51287;BME280;37364;46.974;18.916;2022-12-20T12:54:16;150802.94;;;1.79;100.00
51287;BME280;37364;46.974;18.916;2022-12-20T12:56:47;150799.06;;;1.77;100.00
51287;BME280;37364;46.974;18.916;2022-12-20T13:02:33;150777.22;;;1.69;100.00
51287;BME280;37364;46.974;18.916;2022-12-20T13:05:30;150754.06;;;1.60;100.00
51287;BME280;37364;46.974;18.916;2022-12-20T13:08:14;150730.91;;;1.50;100.00
51287;BME280;37364;46.974;18.916;2022-12-20T13:11:00;150768.22;;;1.65;100.00
51287;BME280;37364;46.974;18.916;2022-12-20T13:13:31;150788.78;;;1.73;100.00
51287;BME280;37364;46.974;18.916;2022-12-20T13:16:10;150778.50;;;1.69;100.00
51287;BME280;37364;46.974;18.916;2022-12-20T13:19:12;150782.38;;;1.71;100.00
51287;BME280;37364;46.974;18.916;2022-12-20T13:21:43;150769.50;;;1.66;100.00
51287;BME280;37364;46.974;18.916;2022-12-20T13:25:00;150738.66;;;1.53;100.00